Time;durP1;ratioP1;P1;durP2;ratioP2;P2;SDS_P1;SDS_P2;PMS_P1;PMS_P2;Temp;Humidity;BMP_temperature;BMP_pressure;BME280_temperature;BME280_humidity;BME280_pressure;Samples;Min_cycle;Max_cycle;Signal;HPM_P1;HPM_P2
2023/06/25 00:02:07;;;;;;;74.38;67.07;;;25.80;70.00;;;;;;5014729;28;20044;-80
2023/06/25 00:04:33;;;;;;;34.45;30.85;;;25.80;70.20;;;;;;5017345;28;20033;-77
2023/06/25 00:06:58;;;;;;;20.27;18.15;;;25.80;70.30;;;;;;5016130;28;20034;-79
2023/06/25 00:09:24;;;;;;;15.15;13.45;;;25.80;70.40;;;;;;5014773;28;20152;-77
2023/06/25 00:11:49;;;;;;;12.30;11.00;;;25.80;70.50;;;;;;5001003;28;20022;-76
2023/06/25 00:14:15;;;;;;;10.32;8.60;;;25.70;70.60;;;;;;4997026;28;20050;-77
2023/06/25 00:16:41;;;;;;;9.38;7.93;;;25.70;70.60;;;;;;4996117;28;20026;-77
2023/06/25 00:19:07;;;;;;;7.97;7.18;;;25.70;70.60;;;;;;4996165;28;20464;-77
2023/06/25 00:21:32;;;;;;;8.73;6.60;;;25.70;70.70;;;;;;5007067;28;20361;-79
2023/06/25 00:23:58;;;;;;;8.13;6.28;;;25.70;70.70;;;;;;5014781;28;20030;-77
2023/06/25 00:26:24;;;;;;;6.90;5.53;;;25.70;70.70;;;;;;5015278;28;20037;-77
2023/06/25 00:28:50;;;;;;;6.32;5.68;;;25.70;70.80;;;;;;5012011;28;20053;-77
2023/06/25 00:31:16;;;;;;;7.35;5.65;;;25.60;70.80;;;;;;4995975;28;20039;-77
2023/06/25 00:33:42;;;;;;;6.05;5.20;;;25.70;70.90;;;;;;4996268;28;20039;-76
2023/06/25 00:36:08;;;;;;;6.03;5.15;;;25.60;70.90;;;;;;4996213;28;20456;-77
2023/06/25 00:38:34;;;;;;;6.93;5.95;;;25.60;71.00;;;;;;5009862;28;20058;-79
2023/06/25 00:41:00;;;;;;;7.63;5.47;;;25.60;71.00;;;;;;5014424;28;20057;-80
2023/06/25 00:43:26;;;;;;;6.07;5.20;;;25.60;71.20;;;;;;5017164;28;20096;-78
2023/06/25 00:45:51;;;;;;;7.63;4.90;;;25.50;71.20;;;;;;5016141;28;20057;-80
2023/06/25 00:48:22;;;;;;;6.25;5.45;;;25.50;71.30;;;;;;5014702;28;20065;-80
2023/06/25 00:50:49;;;;;;;5.72;5.15;;;25.50;71.40;;;;;;5014987;28;20038;-80
2023/06/25 00:53:16;;;;;;;7.30;5.60;;;25.50;71.50;;;;;;5015221;28;20029;-78
2023/06/25 00:55:41;;;;;;;7.03;5.75;;;25.50;71.60;;;;;;5014823;28;20406;-78
2023/06/25 00:58:07;;;;;;;5.97;4.65;;;25.50;71.60;;;;;;5013343;28;20038;-78
2023/06/25 01:00:34;;;;;;;6.80;5.60;;;25.50;71.90;;;;;;5013369;28;20029;-77
2023/06/25 01:03:15;;;;;;;7.68;5.50;;;25.50;71.80;;;;;;5013738;28;20392;-74
2023/06/25 01:05:47;;;;;;;6.78;5.47;;;25.50;72.00;;;;;;5011277;28;20041;-76
2023/06/25 01:08:14;;;;;;;6.72;5.40;;;25.50;71.90;;;;;;5003861;28;20508;-75
2023/06/25 01:10:40;;;;;;;6.40;5.35;;;25.50;71.80;;;;;;5013169;28;20104;-75
2023/06/25 01:13:06;;;;;;;6.70;5.30;;;25.50;71.80;;;;;;5014530;28;20026;-76
2023/06/25 01:15:32;;;;;;;5.97;5.30;;;25.50;71.80;;;;;;5014688;28;20029;-76
2023/06/25 01:17:59;;;;;;;7.03;5.30;;;25.50;72.00;;;;;;5014078;28;20034;-76
2023/06/25 01:20:27;;;;;;;6.80;5.82;;;25.40;72.10;;;;;;5014488;28;20049;-75
2023/06/25 01:22:56;;;;;;;6.57;5.15;;;25.30;72.20;;;;;;5014708;28;20022;-76
2023/06/25 01:25:23;;;;;;;7.22;5.47;;;25.30;72.40;;;;;;5013973;28;20753;-75
2023/06/25 01:27:51;;;;;;;7.15;6.10;;;25.30;72.50;;;;;;5001321;28;20409;-77
2023/06/25 01:30:20;;;;;;;6.78;5.72;;;25.20;72.50;;;;;;4995003;28;20050;-76
2023/06/25 01:32:46;;;;;;;8.75;5.90;;;25.20;72.70;;;;;;4995000;28;20069;-75
2023/06/25 01:35:13;;;;;;;6.80;5.53;;;25.20;72.90;;;;;;4994759;28;20473;-75
2023/06/25 01:37:38;;;;;;;6.88;5.55;;;25.20;73.10;;;;;;4986301;28;20596;-74
2023/06/25 01:40:07;;;;;;;5.63;5.00;;;25.20;73.20;;;;;;4994761;28;20050;-75
2023/06/25 01:42:34;;;;;;;6.45;5.60;;;25.20;73.10;;;;;;4994777;28;20022;-74
2023/06/25 01:44:59;;;;;;;6.43;5.22;;;25.20;73.10;;;;;;5012257;28;20046;-72
2023/06/25 01:47:25;;;;;;;5.57;5.00;;;25.30;73.10;;;;;;5014018;28;20361;-73
2023/06/25 01:49:50;;;;;;;6.32;5.20;;;25.30;73.10;;;;;;5013897;28;20540;-73
2023/06/25 01:52:16;;;;;;;6.32;5.00;;;25.20;73.10;;;;;;5014442;28;20030;-72
2023/06/25 01:54:42;;;;;;;6.30;4.80;;;25.20;73.10;;;;;;5013398;28;20045;-73
2023/06/25 01:57:07;;;;;;;6.18;4.82;;;25.30;73.10;;;;;;5014229;28;20029;-73
2023/06/25 01:59:34;;;;;;;6.25;4.78;;;25.30;73.10;;;;;;5013962;28;20029;-73
2023/06/25 02:02:01;;;;;;;6.43;4.57;;;25.30;72.90;;;;;;5006652;28;20018;-72
2023/06/25 02:04:27;;;;;;;5.57;4.30;;;25.30;72.90;;;;;;4994091;28;20034;-72
2023/06/25 02:06:53;;;;;;;4.70;4.10;;;25.30;73.00;;;;;;4994585;28;20034;-73
2023/06/25 02:09:18;;;;;;;4.75;4.25;;;25.30;73.00;;;;;;4994357;28;20037;-73
2023/06/25 02:11:45;;;;;;;5.00;3.85;;;25.40;72.90;;;;;;4997631;28;20022;-72
2023/06/25 02:14:12;;;;;;;4.18;3.63;;;25.50;72.80;;;;;;5012603;28;20472;-71
2023/06/25 02:16:38;;;;;;;4.85;3.70;;;25.60;72.70;;;;;;5013449;28;20063;-74
2023/06/25 02:19:03;;;;;;;3.92;3.25;;;25.60;72.50;;;;;;5013556;28;20422;-72
2023/06/25 02:21:29;;;;;;;4.55;3.67;;;25.70;72.40;;;;;;5012562;28;20396;-73
2023/06/25 02:23:55;;;;;;;4.45;3.80;;;25.70;72.80;;;;;;5013512;28;20041;-71
2023/06/25 02:26:21;;;;;;;4.47;3.70;;;25.70;72.10;;;;;;5013117;28;20038;-73
2023/06/25 02:28:46;;;;;;;4.82;3.40;;;25.80;72.20;;;;;;5013813;28;20507;-75
2023/06/25 02:31:12;;;;;;;60.95;54.25;;;25.80;71.90;;;;;;5015645;28;20034;-75
2023/06/25 02:33:38;;;;;;;59.50;53.30;;;25.80;71.50;;;;;;5013086;28;20030;-76
2023/06/25 02:36:04;;;;;;;25.17;22.48;;;25.80;71.40;;;;;;5014073;28;20037;-74
2023/06/25 02:38:29;;;;;;;16.25;13.57;;;25.80;71.30;;;;;;5028286;28;20030;-76
2023/06/25 02:40:55;;;;;;;10.05;8.75;;;25.80;71.60;;;;;;5013558;28;20480;-71
2023/06/25 02:43:21;;;;;;;8.48;7.18;;;25.70;71.10;;;;;;5011840;28;20046;-74
2023/06/25 02:45:46;;;;;;;92.95;83.63;;;25.70;71.20;;;;;;5013637;28;20125;-79
2023/06/25 02:48:12;;;;;;;48.75;43.95;;;25.70;71.30;;;;;;5013043;28;20491;-80
2023/06/25 02:50:38;;;;;;;83.25;62.90;;;25.70;71.30;;;;;;5012694;28;20030;-81
2023/06/25 02:53:03;;;;;;;53.17;41.70;;;25.60;71.20;;;;;;5012905;28;20103;-83
2023/06/25 02:55:29;;;;;;;27.38;23.65;;;25.60;71.80;;;;;;5003281;28;20358;-76
2023/06/25 02:57:56;;;;;;;20.60;16.55;;;25.60;71.40;;;;;;4993841;28;20022;-77
2023/06/25 03:00:22;;;;;;;12.68;11.25;;;25.50;71.40;;;;;;4993435;28;20461;-76
2023/06/25 03:02:47;;;;;;;9.38;8.30;;;25.40;71.50;;;;;;4992939;28;20045;-75
2023/06/25 03:05:13;;;;;;;8.63;7.22;;;25.20;71.50;;;;;;4993108;28;20149;-80
2023/06/25 03:07:49;;;;;;;6.95;6.15;;;25.10;71.70;;;;;;4993017;28;20042;-72
2023/06/25 03:10:15;;;;;;;85.50;76.60;;;25.10;72.10;;;;;;4994027;28;20113;-73
2023/06/25 03:12:40;;;;;;;121.18;109.78;;;25.00;72.20;;;;;;4994092;28;20061;-71
2023/06/25 03:15:06;;;;;;;54.63;49.38;;;25.00;72.40;;;;;;4993336;28;20034;-87
2023/06/25 03:17:32;;;;;;;35.40;31.98;;;25.00;72.60;;;;;;4991944;28;20033;-73
2023/06/25 03:19:58;;;;;;;26.98;24.48;;;25.00;72.70;;;;;;4993445;28;20032;-74
2023/06/25 03:22:23;;;;;;;19.05;17.23;;;25.00;72.70;;;;;;5000034;28;20395;-71
2023/06/25 03:24:49;;;;;;;13.38;12.10;;;25.10;72.70;;;;;;4993724;28;20037;-74
2023/06/25 03:27:14;;;;;;;10.05;9.10;;;25.10;73.40;;;;;;4993460;28;20038;-76
2023/06/25 03:29:40;;;;;;;8.63;7.82;;;25.20;72.80;;;;;;4993227;28;20416;-73
2023/06/25 03:32:06;;;;;;;7.25;6.53;;;25.30;72.80;;;;;;4998765;28;20030;-83
2023/06/25 03:34:31;;;;;;;6.32;5.72;;;25.40;72.80;;;;;;5011650;28;20026;-75
2023/06/25 03:36:57;;;;;;;5.72;5.13;;;25.50;72.60;;;;;;5013035;28;20030;-78
2023/06/25 03:39:23;;;;;;;6.00;5.40;;;25.60;72.30;;;;;;5009521;28;20399;-78
2023/06/25 03:41:49;;;;;;;6.38;5.65;;;25.70;72.30;;;;;;4995409;28;20029;-80
2023/06/25 03:44:14;;;;;;;24.50;22.08;;;25.70;72.10;;;;;;5004980;28;20042;-75
2023/06/25 03:46:40;;;;;;;38.85;35.30;;;25.70;72.00;;;;;;5000364;28;20034;-78
2023/06/25 03:49:06;;;;;;;45.63;41.53;;;25.70;72.00;;;;;;5012559;28;20037;-74
2023/06/25 03:51:32;;;;;;;24.98;22.58;;;25.70;72.00;;;;;;5005378;28;20365;-79
2023/06/25 03:53:57;;;;;;;14.10;12.70;;;25.60;71.90;;;;;;4992622;28;20030;-77
2023/06/25 03:56:23;;;;;;;9.93;9.00;;;25.60;71.90;;;;;;4993272;28;20031;-77
2023/06/25 03:58:48;;;;;;;8.52;7.72;;;25.50;71.90;;;;;;4994758;28;20101;-77
2023/06/25 04:01:14;;;;;;;7.30;6.60;;;25.50;72.00;;;;;;5008868;28;20384;-77
2023/06/25 04:03:40;;;;;;;6.65;6.00;;;25.50;72.10;;;;;;5016062;28;20044;-76
2023/06/25 04:06:05;;;;;;;6.88;6.18;;;25.40;72.20;;;;;;5014435;28;20034;-75
2023/06/25 04:08:31;;;;;;;6.43;5.45;;;25.30;72.70;;;;;;5011079;28;20136;-68
2023/06/25 04:10:57;;;;;;;5.78;5.18;;;25.20;72.10;;;;;;5000259;28;20040;-68
2023/06/25 04:13:22;;;;;;;5.50;5.00;;;25.20;72.40;;;;;;5014113;28;20026;-67
2023/06/25 04:15:48;;;;;;;5.72;4.90;;;25.20;72.50;;;;;;4997680;28;20038;-67
2023/06/25 04:18:13;;;;;;;5.70;5.10;;;25.20;72.50;;;;;;5001238;28;20025;-67
2023/06/25 04:20:39;;;;;;;6.13;5.00;;;25.20;72.50;;;;;;5014768;28;20033;-66
2023/06/25 04:23:05;;;;;;;5.18;4.68;;;25.20;72.50;;;;;;5015751;28;20384;-66
2023/06/25 04:25:31;;;;;;;9.15;6.90;;;25.20;72.40;;;;;;5015184;28;20030;-66
2023/06/25 04:27:57;;;;;;;7.13;5.35;;;25.20;72.30;;;;;;5011663;28;20559;-80
2023/06/25 04:30:23;;;;;;;6.45;4.78;;;25.20;72.20;;;;;;5001848;28;20432;-73
2023/06/25 04:32:49;;;;;;;6.35;5.25;;;25.30;72.10;;;;;;5016426;28;20030;-72
2023/06/25 04:35:18;;;;;;;5.55;4.80;;;25.30;71.90;;;;;;5014120;28;20049;-74
2023/06/25 04:37:43;;;;;;;6.13;4.55;;;25.20;71.80;;;;;;5015105;28;20038;-70
2023/06/25 04:40:10;;;;;;;6.88;5.20;;;25.30;71.70;;;;;;5014163;28;20104;-73
2023/06/25 04:42:36;;;;;;;6.93;5.40;;;25.20;71.60;;;;;;5014655;28;20033;-73
2023/06/25 04:45:01;;;;;;;7.15;5.35;;;25.20;71.40;;;;;;5013478;28;20095;-73
2023/06/25 04:47:27;;;;;;;6.47;5.28;;;25.20;71.50;;;;;;5014697;28;20037;-70
2023/06/25 04:49:53;;;;;;;5.85;4.97;;;25.10;71.40;;;;;;5013529;28;20030;-71
2023/06/25 04:52:19;;;;;;;5.90;4.72;;;25.10;71.50;;;;;;5014120;28;20022;-71
2023/06/25 04:54:48;;;;;;;6.53;5.38;;;25.20;71.50;;;;;;5013436;28;20029;-71
2023/06/25 04:57:13;;;;;;;6.18;5.32;;;25.20;71.50;;;;;;5014736;28;20072;-75
2023/06/25 04:59:39;;;;;;;6.07;4.88;;;25.20;71.50;;;;;;5014190;28;20093;-70
2023/06/25 05:02:06;;;;;;;4.85;4.38;;;25.20;71.40;;;;;;5014185;28;20030;-75
2023/06/25 05:04:32;;;;;;;6.22;5.05;;;25.20;71.40;;;;;;5018397;28;20431;-76
2023/06/25 05:06:57;;;;;;;7.28;5.80;;;25.20;71.50;;;;;;5027323;28;20030;-79
2023/06/25 05:09:23;;;;;;;6.82;5.90;;;25.30;71.70;;;;;;5014892;28;20026;-70
2023/06/25 05:11:49;;;;;;;7.00;5.45;;;25.40;71.70;;;;;;5009725;28;20434;-71
2023/06/25 05:14:15;;;;;;;6.05;5.13;;;25.40;71.40;;;;;;5015149;28;20109;-74
2023/06/25 05:16:41;;;;;;;6.25;5.28;;;25.50;71.30;;;;;;5016695;28;20119;-72
2023/06/25 05:19:06;;;;;;;7.38;5.65;;;25.50;71.20;;;;;;5014715;28;20028;-72
2023/06/25 05:21:32;;;;;;;7.53;5.00;;;25.50;71.00;;;;;;5014028;28;20467;-75
2023/06/25 05:24:00;;;;;;;6.18;5.13;;;25.50;71.00;;;;;;5007733;28;20030;-77
2023/06/25 05:26:26;;;;;;;7.43;5.25;;;25.50;70.90;;;;;;5011789;28;20025;-74
2023/06/25 05:28:52;;;;;;;6.15;5.28;;;25.50;70.90;;;;;;5013116;28;20072;-76
2023/06/25 05:31:17;;;;;;;5.70;5.20;;;25.50;71.00;;;;;;5012899;28;20049;-75
2023/06/25 05:33:43;;;;;;;7.20;6.38;;;25.50;71.00;;;;;;5013969;28;20484;-87
2023/06/25 05:36:08;;;;;;;62.22;56.35;;;25.50;71.00;;;;;;5017551;28;20029;-82
2023/06/25 05:38:35;;;;;;;51.15;46.17;;;25.50;71.00;;;;;;5016910;28;20026;-74
2023/06/25 05:41:00;;;;;;;42.28;38.20;;;25.40;70.90;;;;;;5014198;28;20108;-76
2023/06/25 05:43:26;;;;;;;34.17;30.75;;;25.40;71.00;;;;;;5014254;28;20125;-72
2023/06/25 05:45:51;;;;;;;17.98;16.17;;;25.40;71.00;;;;;;5014944;28;20037;-77
2023/06/25 05:48:17;;;;;;;12.80;11.50;;;25.50;71.10;;;;;;5014109;28;20534;-76
2023/06/25 05:50:43;;;;;;;12.60;10.95;;;25.50;71.00;;;;;;5016154;28;20029;-74
2023/06/25 05:53:08;;;;;;;9.65;8.40;;;25.50;70.80;;;;;;5017658;28;20033;-83
2023/06/25 05:55:34;;;;;;;8.00;7.20;;;25.60;71.30;;;;;;5014045;28;20408;-86
2023/06/25 05:58:00;;;;;;;7.00;6.30;;;25.60;70.60;;;;;;5013796;28;20550;-83
2023/06/25 06:00:26;;;;;;;6.68;5.97;;;25.60;70.40;;;;;;5005330;28;20030;-78
2023/06/25 06:02:51;;;;;;;7.25;6.30;;;25.60;70.30;;;;;;4994643;28;20067;-80
2023/06/25 06:05:17;;;;;;;5.88;5.28;;;25.60;70.40;;;;;;4994386;28;20034;-83
2023/06/25 06:07:43;;;;;;;6.28;5.40;;;25.60;70.20;;;;;;4994118;28;20030;-82
2023/06/25 06:10:09;;;;;;;6.22;5.60;;;25.50;70.10;;;;;;4993477;28;20034;-81
2023/06/25 06:12:34;;;;;;;5.45;4.85;;;25.50;70.20;;;;;;5013890;28;20483;-76
2023/06/25 06:15:00;;;;;;;5.95;5.35;;;25.50;70.20;;;;;;5013536;28;20029;-78
2023/06/25 06:17:26;;;;;;;5.88;5.28;;;25.50;70.40;;;;;;5013385;28;20030;-78
2023/06/25 06:19:51;;;;;;;5.47;4.88;;;25.50;70.50;;;;;;5009311;28;20030;-79
2023/06/25 06:22:17;;;;;;;6.43;5.20;;;25.60;70.50;;;;;;5011315;28;20380;-78
2023/06/25 06:24:43;;;;;;;6.10;5.50;;;25.70;70.20;;;;;;5011797;28;20034;-77
2023/06/25 06:27:09;;;;;;;6.68;5.25;;;25.80;70.10;;;;;;5013711;28;20033;-80
2023/06/25 06:29:35;;;;;;;5.47;4.97;;;25.80;70.00;;;;;;5012819;28;20022;-78
2023/06/25 06:32:00;;;;;;;6.57;5.45;;;25.90;69.80;;;;;;5013087;28;20097;-78
2023/06/25 06:34:26;;;;;;;5.93;5.13;;;25.90;69.60;;;;;;5013410;28;20056;-77
2023/06/25 06:36:52;;;;;;;4.88;4.38;;;26.00;69.50;;;;;;5013108;28;20072;-78
2023/06/25 06:39:17;;;;;;;10.27;9.25;;;26.10;69.30;;;;;;5011334;28;20030;-77
2023/06/25 06:41:43;;;;;;;49.30;44.50;;;26.10;69.00;;;;;;5011933;28;20117;-80
2023/06/25 06:44:12;;;;;;;21.15;19.05;;;26.20;68.90;;;;;;5012171;28;20112;-75
2023/06/25 06:46:37;;;;;;;12.38;11.13;;;26.20;68.50;;;;;;5013255;28;20053;-79
2023/06/25 06:49:03;;;;;;;10.45;9.45;;;26.20;68.30;;;;;;5013593;28;20030;-79
2023/06/25 06:51:29;;;;;;;8.05;7.28;;;26.20;68.30;;;;;;5013110;28;20361;-75
2023/06/25 06:53:54;;;;;;;7.75;7.05;;;26.20;68.50;;;;;;5012794;28;20026;-79
2023/06/25 06:56:20;;;;;;;7.43;6.47;;;26.30;68.50;;;;;;5013179;28;20112;-81
2023/06/25 06:58:45;;;;;;;6.47;5.88;;;26.40;68.50;;;;;;5013296;28;20354;-81
2023/06/25 07:01:11;;;;;;;6.20;5.28;;;26.50;68.20;;;;;;5012975;28;20026;-80
2023/06/25 07:03:37;;;;;;;6.07;5.50;;;26.60;68.00;;;;;;5013030;28;20033;-80
2023/06/25 07:06:02;;;;;;;6.22;5.50;;;26.80;67.80;;;;;;5013036;28;20034;-80
2023/06/25 07:08:28;;;;;;;6.18;5.50;;;26.90;67.50;;;;;;5013228;28;20041;-80
2023/06/25 07:10:54;;;;;;;5.63;5.03;;;27.00;67.30;;;;;;5012006;28;20029;-81
2023/06/25 07:13:19;;;;;;;5.18;4.68;;;27.10;67.10;;;;;;5013215;28;20030;-80
2023/06/25 07:15:45;;;;;;;5.28;4.78;;;27.20;66.80;;;;;;5013425;28;20124;-80
2023/06/25 07:18:10;;;;;;;5.47;4.97;;;27.30;66.70;;;;;;5013428;28;20104;-80
2023/06/25 07:20:36;;;;;;;5.30;4.70;;;27.40;66.60;;;;;;5012715;28;20022;-79
2023/06/25 07:23:01;;;;;;;5.68;5.03;;;27.40;66.40;;;;;;5012920;28;20029;-80
2023/06/25 07:25:27;;;;;;;5.70;5.13;;;27.50;66.30;;;;;;5012702;28;20128;-80
2023/06/25 07:27:53;;;;;;;5.30;4.72;;;27.50;66.10;;;;;;5012810;28;20536;-80
2023/06/25 07:30:19;;;;;;;5.32;4.82;;;27.60;66.00;;;;;;5012669;28;20030;-81
2023/06/25 07:32:44;;;;;;;5.30;4.80;;;27.60;65.90;;;;;;5011960;28;20026;-81
2023/06/25 07:35:10;;;;;;;5.40;4.85;;;27.60;65.70;;;;;;5016617;28;20026;-79
2023/06/25 07:37:35;;;;;;;6.05;4.70;;;27.70;65.70;;;;;;5013779;28;20033;-80
2023/06/25 07:40:01;;;;;;;5.40;4.90;;;27.60;65.70;;;;;;5015431;28;20383;-80
2023/06/25 07:42:27;;;;;;;5.90;4.80;;;27.60;65.70;;;;;;5016657;28;20022;-80
2023/06/25 07:44:52;;;;;;;5.70;5.10;;;27.60;65.70;;;;;;5016244;28;20064;-81
2023/06/25 07:47:18;;;;;;;5.90;4.95;;;27.70;65.70;;;;;;5016776;28;20426;-79
2023/06/25 07:49:44;;;;;;;5.43;4.93;;;27.70;65.60;;;;;;5016392;28;20528;-81
2023/06/25 07:52:09;;;;;;;5.97;5.15;;;27.70;65.50;;;;;;5016361;28;20030;-80
2023/06/25 07:54:35;;;;;;;5.20;4.70;;;27.80;65.40;;;;;;5016434;28;20026;-80
2023/06/25 07:57:01;;;;;;;5.82;5.22;;;27.80;66.00;;;;;;5016353;28;20479;-80
2023/06/25 07:59:27;;;;;;;5.60;4.97;;;27.80;65.40;;;;;;5016360;28;20029;-80
2023/06/25 08:01:52;;;;;;;5.28;4.78;;;27.80;65.30;;;;;;5016369;28;20030;-80
2023/06/25 08:04:19;;;;;;;6.03;5.10;;;27.80;65.30;;;;;;5016554;28;20399;-81
2023/06/25 08:06:44;;;;;;;5.35;4.78;;;27.90;65.30;;;;;;5016235;28;20095;-81
2023/06/25 08:09:10;;;;;;;6.07;5.28;;;27.90;65.20;;;;;;5014554;28;20042;-81
2023/06/25 08:11:36;;;;;;;5.78;5.13;;;27.90;65.10;;;;;;5015408;28;20034;-81
2023/06/25 08:14:02;;;;;;;5.70;5.13;;;27.90;65.10;;;;;;5016205;28;20018;-81
2023/06/25 08:16:30;;;;;;;5.97;5.25;;;27.90;65.20;;;;;;5016231;28;20030;-81
2023/06/25 08:18:56;;;;;;;5.38;4.88;;;27.80;65.70;;;;;;5016440;28;20048;-80
2023/06/25 08:21:21;;;;;;;6.07;5.35;;;27.80;65.20;;;;;;5015579;28;20078;-79
2023/06/25 08:23:47;;;;;;;5.90;5.30;;;27.70;65.20;;;;;;5016135;28;20500;-80
2023/06/25 08:26:15;;;;;;;6.07;5.32;;;27.70;65.30;;;;;;5015369;28;20105;-80
2023/06/25 08:28:42;;;;;;;6.05;5.45;;;27.70;65.30;;;;;;5016341;28;20080;-80
2023/06/25 08:31:08;;;;;;;5.38;4.88;;;27.70;65.30;;;;;;5016120;28;20084;-80
2023/06/25 08:33:34;;;;;;;6.22;4.72;;;27.80;65.30;;;;;;5015217;28;20104;-80
2023/06/25 08:36:00;;;;;;;5.28;4.70;;;27.90;65.20;;;;;;5015729;28;20030;-80
2023/06/25 08:38:27;;;;;;;5.13;4.60;;;27.90;65.00;;;;;;5015961;28;20033;-80
2023/06/25 08:40:53;;;;;;;4.68;4.22;;;28.00;64.90;;;;;;5015616;28;20454;-78
2023/06/25 08:43:19;;;;;;;5.45;4.90;;;28.10;64.70;;;;;;5013730;28;20053;-79
2023/06/25 08:45:47;;;;;;;5.95;4.45;;;28.10;64.70;;;;;;5014765;28;20049;-80
2023/06/25 08:48:13;;;;;;;5.95;5.35;;;28.10;64.70;;;;;;5015580;28;20030;-79
2023/06/25 08:50:45;;;;;;;5.20;4.70;;;28.20;64.50;;;;;;5015411;28;20057;-79
2023/06/25 08:53:11;;;;;;;6.75;5.20;;;28.20;64.40;;;;;;5015423;28;20030;-80
2023/06/25 08:55:39;;;;;;;5.22;4.72;;;28.30;64.20;;;;;;5015215;28;20030;-79
2023/06/25 08:58:05;;;;;;;5.20;4.70;;;28.40;64.10;;;;;;5015137;28;20028;-79
2023/06/25 09:00:31;;;;;;;5.38;4.80;;;28.50;64.00;;;;;;5015293;28;20022;-79
2023/06/25 09:02:57;;;;;;;5.65;4.60;;;28.60;63.80;;;;;;5015370;28;20111;-80
2023/06/25 09:05:25;;;;;;;5.70;4.80;;;28.70;63.70;;;;;;5014414;28;20460;-79
2023/06/25 09:07:51;;;;;;;5.95;4.70;;;28.70;63.50;;;;;;5015393;28;20368;-79
2023/06/25 09:10:18;;;;;;;5.15;4.65;;;28.80;63.50;;;;;;5015202;28;20094;-79
2023/06/25 09:12:45;;;;;;;5.05;4.55;;;28.80;63.30;;;;;;5015175;28;20108;-78
2023/06/25 09:15:11;;;;;;;4.82;4.32;;;28.90;63.30;;;;;;5014810;28;20095;-79
2023/06/25 09:17:37;;;;;;;5.25;4.75;;;29.10;63.10;;;;;;5014702;28;20022;-79
2023/06/25 09:20:05;;;;;;;5.07;4.43;;;29.10;62.90;;;;;;5015424;28;20037;-78
2023/06/25 09:22:31;;;;;;;5.25;4.63;;;29.30;62.80;;;;;;5013365;28;20499;-80
2023/06/25 09:24:56;;;;;;;4.78;4.30;;;29.30;62.50;;;;;;5014430;28;20056;-80
2023/06/25 09:27:22;;;;;;;5.85;4.50;;;29.40;62.40;;;;;;5014471;28;20025;-79
2023/06/25 09:29:48;;;;;;;5.00;4.45;;;29.40;62.20;;;;;;5013745;28;20029;-80
2023/06/25 09:32:17;;;;;;;4.70;4.30;;;29.50;62.10;;;;;;5014562;28;20025;-79
2023/06/25 09:34:46;;;;;;;4.80;4.30;;;29.60;62.00;;;;;;5014206;28;20131;-80
2023/06/25 09:37:11;;;;;;;4.80;3.90;;;29.60;61.90;;;;;;5016465;28;20037;-80
2023/06/25 09:39:37;;;;;;;4.50;4.10;;;29.70;61.90;;;;;;5015560;28;20388;-79
2023/06/25 09:42:06;;;;;;;4.47;4.07;;;29.70;61.70;;;;;;5014319;28;20104;-80
2023/06/25 09:44:34;;;;;;;4.95;4.45;;;29.70;61.60;;;;;;5013923;28;20085;-78
2023/06/25 09:47:06;;;;;;;4.50;4.03;;;29.70;61.50;;;;;;5013653;28;20032;-78
2023/06/25 09:49:32;;;;;;;5.03;4.30;;;29.70;61.50;;;;;;5014248;28;20109;-80
2023/06/25 09:52:14;;;;;;;4.97;4.47;;;29.80;61.50;;;;;;5014384;28;20072;-80
2023/06/25 09:54:41;;;;;;;4.72;4.30;;;29.80;61.20;;;;;;5014366;28;20164;-80
2023/06/25 09:57:09;;;;;;;6.53;4.30;;;29.90;61.20;;;;;;5013845;28;20022;-81
2023/06/25 09:59:36;;;;;;;4.72;4.20;;;30.00;61.10;;;;;;5013954;28;20034;-80
2023/06/25 10:02:04;;;;;;;4.70;4.30;;;30.00;61.00;;;;;;5013930;28;20053;-80
2023/06/25 10:04:32;;;;;;;4.55;4.13;;;30.00;60.80;;;;;;5013734;28;20060;-81
2023/06/25 10:06:58;;;;;;;4.82;4.40;;;30.10;60.80;;;;;;5013907;28;20026;-80
2023/06/25 10:09:24;;;;;;;4.63;4.20;;;30.10;60.80;;;;;;5012982;28;20034;-78
2023/06/25 10:11:56;;;;;;;4.47;4.07;;;30.00;60.70;;;;;;5014017;28;20045;-80
2023/06/25 10:14:22;;;;;;;4.20;3.80;;;30.10;60.70;;;;;;5014299;28;20022;-79
2023/06/25 10:16:52;;;;;;;4.40;4.00;;;30.10;60.70;;;;;;5013944;28;20026;-80
2023/06/25 10:19:26;;;;;;;4.45;4.05;;;30.00;60.50;;;;;;5014123;28;20088;-79
2023/06/25 10:22:04;;;;;;;4.38;3.97;;;30.00;60.40;;;;;;5013952;28;20068;-80
2023/06/25 10:24:47;;;;;;;4.28;3.88;;;30.00;60.40;;;;;;5012275;28;20034;-79
2023/06/25 10:27:24;;;;;;;4.95;4.30;;;30.00;60.20;;;;;;5013576;28;20534;-79
2023/06/25 10:29:52;;;;;;;4.22;3.80;;;30.10;60.20;;;;;;5013932;28;20540;-80
2023/06/25 10:32:22;;;;;;;4.30;3.90;;;30.10;60.30;;;;;;5013639;28;20392;-78
2023/06/25 10:35:01;;;;;;;4.30;3.90;;;30.10;60.30;;;;;;5013354;28;20060;-80
2023/06/25 10:37:35;;;;;;;4.05;3.67;;;30.20;60.10;;;;;;5013323;28;20022;-79
2023/06/25 10:40:06;;;;;;;4.43;3.78;;;30.20;60.10;;;;;;5012558;28;20388;-80
2023/06/25 10:42:32;;;;;;;4.90;4.10;;;30.20;60.00;;;;;;5013385;28;20033;-80
2023/06/25 10:44:59;;;;;;;4.63;4.13;;;30.20;60.00;;;;;;4995406;28;20108;-81
2023/06/25 10:47:25;;;;;;;4.07;3.60;;;30.30;59.90;;;;;;5011178;28;20045;-80
2023/06/25 10:49:51;;;;;;;3.60;3.30;;;30.30;59.80;;;;;;5013659;28;20029;-81
2023/06/25 10:52:18;;;;;;;4.05;3.65;;;30.30;59.70;;;;;;5013643;28;20026;-80
2023/06/25 10:54:44;;;;;;;4.25;3.42;;;30.40;59.70;;;;;;5013448;28;20452;-79
2023/06/25 10:57:12;;;;;;;4.15;3.63;;;30.50;60.20;;;;;;5012066;28;20032;-81
2023/06/25 10:59:45;;;;;;;4.43;3.85;;;30.50;59.50;;;;;;5012809;28;20534;-80
2023/06/25 11:02:18;;;;;;;4.88;3.92;;;30.50;59.30;;;;;;5012564;28;20030;-81
2023/06/25 11:04:51;;;;;;;;;;;30.50;59.30;;;;;;5013604;28;20044;-80
2023/06/25 11:07:19;;;;;;;4.30;3.90;;;30.40;58.80;;;;;;5013239;28;19909;-80
2023/06/25 11:09:50;;;;;;;4.55;3.60;;;30.40;59.50;;;;;;5012078;28;20030;-80
2023/06/25 11:12:16;;;;;;;3.90;3.47;;;30.30;59.40;;;;;;5012765;28;20022;-80
2023/06/25 11:14:42;;;;;;;3.80;3.40;;;30.30;59.40;;;;;;5013693;28;20034;-81
2023/06/25 11:17:08;;;;;;;4.00;3.60;;;30.30;59.50;;;;;;5012026;28;20231;-80
2023/06/25 11:19:33;;;;;;;4.28;3.50;;;30.30;59.50;;;;;;5012682;28;20022;-80
2023/06/25 11:22:04;;;;;;;5.00;3.80;;;30.20;59.40;;;;;;5011601;28;20084;-80
2023/06/25 11:24:36;;;;;;;3.85;3.45;;;30.20;59.40;;;;;;5012758;28;20025;-80
2023/06/25 11:27:03;;;;;;;4.30;3.88;;;30.20;59.40;;;;;;5013224;28;20096;-80
2023/06/25 11:29:39;;;;;;;5.25;3.80;;;30.20;59.40;;;;;;5011598;28;20034;-79
2023/06/25 11:32:08;;;;;;;3.90;3.50;;;30.20;59.80;;;;;;5013112;28;20018;-81
2023/06/25 11:34:35;;;;;;;3.85;3.45;;;30.20;59.20;;;;;;5012994;28;20034;-80
2023/06/25 11:37:15;;;;;;;4.60;3.47;;;30.20;59.20;;;;;;5012527;28;20026;-81
2023/06/25 11:39:49;;;;;;;4.68;3.90;;;30.20;59.10;;;;;;5012361;28;20080;-80
2023/06/25 11:42:22;;;;;;;;;;;30.20;59.20;;;;;;5013399;28;20041;-80
2023/06/25 11:45:05;;;;;;;3.55;3.25;;;30.20;58.80;;;;;;5012571;28;19925;-81
2023/06/25 11:47:31;;;;;;;3.70;3.40;;;30.20;58.90;;;;;;5011485;28;20092;-80
2023/06/25 11:49:58;;;;;;;3.70;3.40;;;30.30;59.30;;;;;;5012314;28;20403;-80
2023/06/25 11:52:24;;;;;;;4.10;3.70;;;30.20;59.20;;;;;;5012943;28;20109;-80
2023/06/25 11:54:50;;;;;;;4.00;3.60;;;30.20;59.20;;;;;;5012004;28;20038;-82
2023/06/25 11:57:17;;;;;;;5.40;3.63;;;30.20;59.10;;;;;;5012683;28;20049;-81
2023/06/25 11:59:43;;;;;;;3.80;3.40;;;30.20;59.10;;;;;;5011177;28;20495;-80
2023/06/25 12:02:12;;;;;;;4.07;3.65;;;30.20;59.00;;;;;;5011391;28;20037;-81
2023/06/25 12:04:38;;;;;;;3.88;3.53;;;30.30;59.00;;;;;;5011821;28;20026;-81
2023/06/25 12:07:04;;;;;;;3.88;3.42;;;30.30;59.00;;;;;;5013095;28;20041;-80
2023/06/25 12:09:29;;;;;;;3.30;3.00;;;30.30;58.80;;;;;;5012736;28;20026;-81
2023/06/25 12:11:55;;;;;;;4.43;3.53;;;30.40;58.80;;;;;;5012840;28;20152;-81
2023/06/25 12:14:21;;;;;;;3.30;3.00;;;30.50;58.60;;;;;;5012474;28;20030;-80
2023/06/25 12:16:47;;;;;;;3.53;3.22;;;30.60;58.40;;;;;;5012961;28;20030;-80
2023/06/25 12:19:13;;;;;;;4.78;3.28;;;30.60;58.20;;;;;;5012755;28;20109;-80
2023/06/25 12:21:38;;;;;;;3.70;3.28;;;30.70;58.10;;;;;;5014729;28;20034;-80
2023/06/25 12:24:04;;;;;;;3.63;3.22;;;30.70;58.00;;;;;;5016656;28;20117;-81
2023/06/25 12:26:30;;;;;;;3.58;3.28;;;30.60;57.90;;;;;;5015869;28;20116;-79
2023/06/25 12:28:56;;;;;;;4.07;3.45;;;30.60;57.90;;;;;;5014608;28;20491;-81
2023/06/25 12:31:22;;;;;;;3.42;3.13;;;30.60;57.90;;;;;;5015556;28;20448;-80
2023/06/25 12:33:48;;;;;;;4.55;3.38;;;30.60;58.00;;;;;;5015907;28;20030;-80
2023/06/25 12:36:14;;;;;;;4.00;3.60;;;30.60;58.00;;;;;;5015126;28;20084;-80
2023/06/25 12:38:39;;;;;;;4.45;3.30;;;30.60;57.90;;;;;;5015826;28;20076;-81
2023/06/25 12:41:05;;;;;;;3.97;3.58;;;30.60;57.90;;;;;;5016280;28;20100;-80
2023/06/25 12:43:31;;;;;;;5.03;3.67;;;30.70;57.90;;;;;;5015201;28;20096;-81